createdAt,value
2018-05-25T00:02:25.312Z,17.50
2018-05-25T00:04:52.913Z,17.30
2018-05-25T00:07:20.484Z,17.10
2018-05-25T00:09:48.091Z,17.10
2018-05-25T00:12:15.691Z,17.00
2018-05-25T00:14:43.257Z,17.00
2018-05-25T00:17:10.855Z,16.90
2018-05-25T00:19:39.230Z,16.80
2018-05-25T00:22:06.836Z,16.70
2018-05-25T00:24:34.402Z,16.70
2018-05-25T00:27:02.009Z,16.70
2018-05-25T00:29:29.578Z,16.70
2018-05-25T00:31:57.200Z,16.60
2018-05-25T00:34:24.772Z,16.60
2018-05-25T00:36:52.341Z,16.60
2018-05-25T00:39:19.952Z,16.60
2018-05-25T00:41:47.533Z,16.60
2018-05-25T00:44:15.148Z,16.60
2018-05-25T00:46:42.729Z,16.60
2018-05-25T00:49:10.291Z,16.60
2018-05-25T00:51:38.661Z,16.60
2018-05-25T00:54:07.029Z,16.50
2018-05-25T00:56:35.398Z,16.50
2018-05-25T00:59:03.148Z,16.50
2018-05-25T01:01:30.759Z,16.50
2018-05-25T01:03:58.349Z,16.50
2018-05-25T01:06:25.948Z,16.50
2018-05-25T01:08:53.523Z,16.50
2018-05-25T01:11:21.136Z,16.50
2018-05-25T01:13:48.711Z,16.50
2018-05-25T01:16:16.321Z,16.50
2018-05-25T01:18:43.893Z,16.60
2018-05-25T01:21:11.497Z,16.60
2018-05-25T01:23:39.073Z,16.60
2018-05-25T01:26:06.672Z,16.60
2018-05-25T01:28:34.246Z,16.60
2018-05-25T01:31:01.857Z,16.60
2018-05-25T01:33:29.421Z,16.60
2018-05-25T01:35:57.028Z,16.60
2018-05-25T01:38:24.652Z,16.60
2018-05-25T01:40:52.990Z,16.70
2018-05-25T01:43:20.600Z,16.70
2018-05-25T01:45:48.183Z,16.70
2018-05-25T01:48:15.760Z,16.70
2018-05-25T01:50:43.358Z,16.70
2018-05-25T01:53:10.932Z,16.70
2018-05-25T01:55:39.304Z,16.70
2018-05-25T01:58:06.912Z,16.70
2018-05-25T02:00:34.532Z,16.70
2018-05-25T02:03:02.914Z,16.80
2018-05-25T02:05:31.286Z,16.70
2018-05-25T02:07:59.043Z,16.70
2018-05-25T02:10:26.620Z,16.70
2018-05-25T02:12:54.220Z,16.70
2018-05-25T02:15:21.784Z,16.60
2018-05-25T02:17:49.382Z,16.60
2018-05-25T02:20:16.953Z,16.60
2018-05-25T02:22:44.555Z,16.60
2018-05-25T02:25:12.120Z,16.60
2018-05-25T02:27:39.725Z,16.50
2018-05-25T02:30:07.340Z,16.50
2018-05-25T02:32:34.945Z,16.50
2018-05-25T02:35:02.560Z,16.50
2018-05-25T02:37:30.138Z,16.50
2018-05-25T02:39:57.707Z,16.50
2018-05-25T02:42:25.318Z,16.40
2018-05-25T02:44:53.650Z,16.30
2018-05-25T02:47:21.260Z,16.30
2018-05-25T02:49:48.826Z,16.20
2018-05-25T02:52:16.433Z,16.20
2018-05-25T02:54:44.016Z,16.10
2018-05-25T02:57:11.716Z,16.00
2018-05-25T02:59:39.237Z,15.80
2018-05-25T03:02:06.814Z,15.80
2018-05-25T03:04:35.197Z,15.70
2018-05-25T03:07:03.531Z,15.70
2018-05-25T03:09:31.140Z,15.60
2018-05-25T03:11:58.712Z,15.60
2018-05-25T03:14:26.319Z,15.60
2018-05-25T03:16:53.890Z,15.60
2018-05-25T03:19:21.528Z,15.60
2018-05-25T03:21:49.103Z,15.50
2018-05-25T03:24:16.704Z,15.50
2018-05-25T03:26:45.082Z,15.50
2018-05-25T03:29:13.428Z,15.50
2018-05-25T03:31:41.036Z,15.50
2018-05-25T03:34:08.646Z,15.50
2018-05-25T03:36:36.256Z,15.50
2018-05-25T03:39:03.831Z,15.50
2018-05-25T03:41:31.436Z,15.40
2018-05-25T03:43:59.048Z,15.40
2018-05-25T03:46:26.629Z,15.30
2018-05-25T03:48:54.240Z,15.40
2018-05-25T03:51:21.863Z,15.30
2018-05-25T03:53:49.447Z,15.40
2018-05-25T03:56:17.056Z,15.30
2018-05-25T03:58:57.265Z,15.20
2018-05-25T04:01:36.605Z,15.20
2018-05-25T04:04:05.108Z,15.20
2018-05-25T04:06:32.720Z,15.20
2018-05-25T04:09:00.297Z,15.20
2018-05-25T04:11:27.902Z,15.10
2018-05-25T04:13:56.245Z,15.10
2018-05-25T04:16:23.868Z,15.10
2018-05-25T04:18:51.440Z,15.20
2018-05-25T04:21:19.052Z,15.10
2018-05-25T04:23:46.660Z,15.10
2018-05-25T04:26:14.234Z,15.00
2018-05-25T04:28:41.867Z,15.00
2018-05-25T04:31:09.468Z,15.10
2018-05-25T04:33:37.056Z,15.10
2018-05-25T04:36:04.675Z,15.10
2018-05-25T04:38:32.286Z,15.10
2018-05-25T04:41:00.668Z,15.10
2018-05-25T04:43:28.242Z,15.10
2018-05-25T04:45:56.608Z,15.20
2018-05-25T04:48:24.948Z,15.20
2018-05-25T04:50:52.736Z,15.20
2018-05-25T04:53:20.299Z,15.20
2018-05-25T04:55:47.907Z,15.30
2018-05-25T04:58:15.520Z,15.30
2018-05-25T05:00:43.095Z,15.40
2018-05-25T05:03:10.699Z,15.40
2018-05-25T05:05:38.274Z,15.50
2018-05-25T05:08:05.900Z,15.60
2018-05-25T05:10:33.480Z,15.70
2018-05-25T05:13:01.064Z,15.70
2018-05-25T05:15:28.672Z,15.80
2018-05-25T05:17:56.280Z,15.90
2018-05-25T05:20:23.866Z,16.00
2018-05-25T05:22:51.500Z,16.10
2018-05-25T05:25:19.088Z,16.20
2018-05-25T05:27:46.669Z,16.40
2018-05-25T05:30:14.289Z,16.50
2018-05-25T05:32:41.856Z,16.60
2018-05-25T05:35:09.479Z,16.70
2018-05-25T05:37:37.211Z,16.80
2018-05-25T05:40:04.794Z,16.80
2018-05-25T05:42:32.409Z,16.90
2018-05-25T05:45:00.032Z,16.90
2018-05-25T05:47:27.604Z,16.90
2018-05-25T05:49:55.177Z,16.90
2018-05-25T05:52:22.784Z,16.90
2018-05-25T05:54:50.397Z,16.90
2018-05-25T05:57:17.973Z,16.90
2018-05-25T05:59:45.579Z,17.00
2018-05-25T06:02:13.926Z,17.30
2018-05-25T06:04:41.535Z,17.30
2018-05-25T06:07:09.136Z,17.50
2018-05-25T06:09:36.703Z,17.80
2018-05-25T06:12:04.325Z,18.00
2018-05-25T06:14:31.937Z,18.20
2018-05-25T06:16:59.523Z,18.40
2018-05-25T06:19:27.133Z,18.60
2018-05-25T06:21:54.749Z,18.80
2018-05-25T06:24:22.332Z,19.00
2018-05-25T06:26:49.964Z,19.20
2018-05-25T06:29:17.545Z,19.40
2018-05-25T06:31:45.171Z,19.50
2018-05-25T06:34:12.760Z,19.60
2018-05-25T06:36:40.405Z,19.80
2018-05-25T06:39:08.001Z,19.80
2018-05-25T06:41:35.622Z,19.90
2018-05-25T06:44:03.261Z,19.90
2018-05-25T06:46:30.844Z,20.00
2018-05-25T06:48:58.476Z,20.10
2018-05-25T06:51:26.078Z,20.20
2018-05-25T06:53:53.743Z,20.20
2018-05-25T06:56:21.324Z,20.30
2018-05-25T06:58:48.917Z,20.40
2018-05-25T07:01:16.534Z,20.40
2018-05-25T07:03:44.116Z,20.50
2018-05-25T07:06:11.737Z,20.60
2018-05-25T07:08:39.350Z,20.70
2018-05-25T07:11:06.976Z,20.80
2018-05-25T07:13:34.559Z,20.90
2018-05-25T07:16:02.184Z,21.00
2018-05-25T07:18:29.776Z,21.10
2018-05-25T07:20:57.392Z,21.20
2018-05-25T07:23:24.993Z,21.30
2018-05-25T07:25:52.609Z,21.30
2018-05-25T07:28:20.256Z,21.40
2018-05-25T07:30:47.890Z,21.60
2018-05-25T07:33:15.479Z,21.60
2018-05-25T07:35:43.129Z,21.70
2018-05-25T07:38:10.749Z,21.90
2018-05-25T07:40:38.371Z,21.90
2018-05-25T07:43:05.946Z,22.20
2018-05-25T07:45:33.520Z,22.20
2018-05-25T07:48:01.148Z,22.20
2018-05-25T07:50:29.706Z,22.10
2018-05-25T07:52:57.327Z,22.20
2018-05-25T07:55:24.961Z,22.40
2018-05-25T07:57:52.593Z,22.50
2018-05-25T08:00:20.206Z,22.60
2018-05-25T08:02:47.773Z,22.70
2018-05-25T08:05:15.392Z,22.80
2018-05-25T08:07:42.979Z,22.90
2018-05-25T08:10:10.622Z,23.00
2018-05-25T08:12:38.306Z,23.00
2018-05-25T08:15:05.922Z,23.00
2018-05-25T08:17:33.559Z,23.00
2018-05-25T08:20:01.143Z,23.10
2018-05-25T08:22:28.772Z,23.20
2018-05-25T08:24:56.357Z,23.20
2018-05-25T08:27:23.989Z,23.30
2018-05-25T08:29:51.587Z,23.40
2018-05-25T08:32:19.163Z,23.40
2018-05-25T08:34:46.773Z,23.50
2018-05-25T08:37:14.361Z,23.50
2018-05-25T08:39:41.984Z,23.40
2018-05-25T08:42:09.570Z,23.30
2018-05-25T08:44:37.201Z,23.20
2018-05-25T08:47:04.798Z,23.20
2018-05-25T08:49:32.448Z,23.40
2018-05-25T08:52:00.048Z,23.50
2018-05-25T08:54:27.680Z,23.70
2018-05-25T08:56:56.038Z,23.80
2018-05-25T08:59:23.616Z,23.80
2018-05-25T09:01:52.009Z,24.10
2018-05-25T09:04:19.643Z,24.10
2018-05-25T09:06:47.303Z,24.20
2018-05-25T09:09:14.886Z,24.30
2018-05-25T09:11:43.285Z,24.50
2018-05-25T09:14:10.866Z,24.50
2018-05-25T09:16:38.533Z,24.50
2018-05-25T09:19:06.108Z,24.60
2018-05-25T09:21:33.736Z,24.80
2018-05-25T09:24:01.337Z,24.90
2018-05-25T09:26:28.963Z,25.00
2018-05-25T09:28:56.591Z,25.20
2018-05-25T09:31:24.176Z,25.30
2018-05-25T09:33:51.806Z,25.40
2018-05-25T09:36:19.493Z,25.50
2018-05-25T09:38:47.077Z,25.80
2018-05-25T09:41:14.684Z,25.90
2018-05-25T09:43:42.315Z,26.00
2018-05-25T09:46:09.947Z,26.10
2018-05-25T09:48:37.568Z,26.30
2018-05-25T09:51:05.161Z,26.30
2018-05-25T09:53:32.805Z,26.30
2018-05-25T09:56:00.413Z,26.20
2018-05-25T09:58:28.021Z,26.30
2018-05-25T10:00:55.607Z,26.40
2018-05-25T10:03:23.237Z,26.60
2018-05-25T10:05:50.828Z,26.60
2018-05-25T10:08:18.456Z,26.60
2018-05-25T10:10:46.047Z,26.60
2018-05-25T10:13:13.661Z,26.80
2018-05-25T10:15:41.296Z,26.80
2018-05-25T10:18:08.892Z,26.90
2018-05-25T10:20:36.558Z,27.10
2018-05-25T10:23:04.187Z,27.10
2018-05-25T10:25:31.790Z,27.10
2018-05-25T10:27:59.382Z,27.20
2018-05-25T10:30:27.768Z,26.90
2018-05-25T10:32:55.355Z,26.90
2018-05-25T10:35:22.981Z,26.50
2018-05-25T10:37:51.316Z,26.10
2018-05-25T10:40:18.961Z,26.10
2018-05-25T10:42:46.552Z,26.10
2018-05-25T10:45:14.164Z,26.00
2018-05-25T10:47:41.784Z,26.00
2018-05-25T10:50:09.369Z,26.10
2018-05-25T10:52:36.990Z,26.30
2018-05-25T10:55:04.652Z,26.60
2018-05-25T10:57:32.239Z,26.90
2018-05-25T10:59:59.862Z,27.30
2018-05-25T11:02:27.472Z,27.50
2018-05-25T11:04:55.856Z,27.80
2018-05-25T11:07:24.200Z,28.00
2018-05-25T11:09:51.782Z,27.90
2018-05-25T11:12:19.410Z,27.90
2018-05-25T11:14:46.988Z,28.00
2018-05-25T11:17:14.609Z,27.80
2018-05-25T11:19:42.252Z,27.70
2018-05-25T11:22:09.831Z,27.50
2018-05-25T11:24:37.412Z,27.60
2018-05-25T11:27:05.061Z,27.60
2018-05-25T11:29:32.622Z,27.70
2018-05-25T11:32:00.236Z,28.00
2018-05-25T11:34:27.823Z,28.30
2018-05-25T11:36:55.453Z,28.60
2018-05-25T11:39:23.033Z,28.60
2018-05-25T11:41:51.422Z,28.60
2018-05-25T11:44:19.009Z,28.60
2018-05-25T11:46:46.640Z,28.70
2018-05-25T11:49:14.988Z,29.10
2018-05-25T11:51:42.613Z,29.10
2018-05-25T11:54:10.237Z,29.10
2018-05-25T11:56:38.581Z,28.60
2018-05-25T11:59:06.205Z,28.60
2018-05-25T12:01:33.789Z,28.30
2018-05-25T12:04:01.421Z,28.10
2018-05-25T12:06:29.007Z,28.10
2018-05-25T12:08:56.631Z,28.30
2018-05-25T12:11:24.210Z,28.50
2018-05-25T12:13:51.847Z,28.50
2018-05-25T12:16:19.420Z,28.30
2018-05-25T12:18:47.004Z,28.20
2018-05-25T12:21:14.634Z,28.10
2018-05-25T12:23:42.209Z,28.10
2018-05-25T12:26:09.801Z,28.20
2018-05-25T12:28:37.432Z,28.10
2018-05-25T12:31:05.064Z,28.10
2018-05-25T12:33:32.648Z,28.10
2018-05-25T12:36:00.269Z,28.00
2018-05-25T12:38:27.849Z,27.90
2018-05-25T12:40:56.234Z,27.80
2018-05-25T12:43:24.632Z,27.70
2018-05-25T12:45:52.216Z,27.70
2018-05-25T12:48:19.792Z,27.90
2018-05-25T12:50:47.416Z,28.20
2018-05-25T12:53:15.011Z,28.60
2018-05-25T12:55:42.648Z,29.00
2018-05-25T12:58:10.233Z,29.20
2018-05-25T13:00:37.825Z,29.30
2018-05-25T13:03:05.448Z,29.10
2018-05-25T13:05:33.021Z,29.00
2018-05-25T13:08:00.641Z,29.00
2018-05-25T13:10:28.262Z,28.80
2018-05-25T13:12:55.899Z,28.80
2018-05-25T13:15:23.482Z,28.80
2018-05-25T13:17:51.103Z,28.80
2018-05-25T13:20:18.739Z,28.90
2018-05-25T13:22:46.319Z,29.00
2018-05-25T13:25:14.652Z,29.20
2018-05-25T13:27:42.266Z,29.30
2018-05-25T13:30:09.901Z,29.20
2018-05-25T13:32:37.490Z,29.10
2018-05-25T13:35:08.705Z,28.80
2018-05-25T13:37:36.340Z,28.60
2018-05-25T13:40:03.942Z,28.30
2018-05-25T13:42:31.528Z,28.10
2018-05-25T13:44:59.150Z,28.10
2018-05-25T13:47:26.776Z,28.10
2018-05-25T13:49:54.348Z,28.20
2018-05-25T13:52:21.943Z,28.40
2018-05-25T13:54:49.565Z,28.60
2018-05-25T13:57:17.140Z,28.90
2018-05-25T13:59:44.758Z,29.10
2018-05-25T14:02:12.330Z,29.40
2018-05-25T14:04:39.944Z,29.40
2018-05-25T14:07:08.295Z,29.10
2018-05-25T14:09:35.915Z,29.20
2018-05-25T14:12:03.502Z,29.10
2018-05-25T14:14:31.121Z,29.20
2018-05-25T14:16:58.703Z,29.30
2018-05-25T14:19:26.280Z,29.70
2018-05-25T14:21:53.909Z,30.50
2018-05-25T14:24:22.232Z,31.20
2018-05-25T14:26:49.849Z,32.10
2018-05-25T14:29:17.456Z,32.70
2018-05-25T14:31:45.030Z,33.20
2018-05-25T14:34:12.651Z,33.40
2018-05-25T14:36:40.262Z,33.60
2018-05-25T14:39:08.608Z,33.30
2018-05-25T14:41:36.224Z,33.20
2018-05-25T14:44:03.800Z,32.60
2018-05-25T14:46:31.409Z,31.90
2018-05-25T14:48:58.989Z,31.40
2018-05-25T14:51:26.608Z,30.80
2018-05-25T14:53:54.213Z,30.30
2018-05-25T14:56:21.781Z,30.10
2018-05-25T14:58:50.163Z,30.50
2018-05-25T15:01:18.527Z,30.50
2018-05-25T15:03:46.158Z,30.50
2018-05-25T15:06:13.740Z,30.30
2018-05-25T15:08:41.350Z,30.10
2018-05-25T15:11:08.955Z,30.20
2018-05-25T15:13:36.526Z,30.70
2018-05-25T15:16:04.136Z,30.90
2018-05-25T15:18:31.716Z,30.70
2018-05-25T15:20:59.334Z,30.20
2018-05-25T15:23:26.915Z,30.10
2018-05-25T15:25:54.525Z,30.30
2018-05-25T15:28:22.121Z,30.90
2018-05-25T15:30:50.677Z,32.30
2018-05-25T15:33:18.790Z,32.30
2018-05-25T15:35:48.254Z,32.80
2018-05-25T15:40:57.914Z,33.20
2018-05-25T15:43:28.890Z,32.70
2018-05-25T15:46:00.286Z,32.80
2018-05-25T15:48:31.894Z,33.20
2018-05-25T15:51:02.758Z,33.20
2018-05-25T15:53:38.727Z,33.10
2018-05-25T15:56:08.457Z,33.30
2018-05-25T16:01:21.903Z,33.60
2018-05-25T16:03:55.822Z,33.60
2018-05-25T16:06:30.776Z,34.00
2018-05-25T16:11:42.310Z,34.30
2018-05-25T16:14:16.619Z,34.10
2018-05-25T16:16:54.040Z,34.30
2018-05-25T16:22:10.483Z,34.80
2018-05-25T16:24:43.060Z,35.10
2018-05-25T16:27:18.116Z,35.00
2018-05-25T16:32:32.039Z,35.50
2018-05-25T16:35:03.326Z,35.60
2018-05-25T16:37:40.427Z,35.50
2018-05-25T16:40:17.850Z,35.40
2018-05-25T16:42:52.267Z,35.40
2018-05-25T16:45:25.891Z,34.80
2018-05-25T16:48:01.241Z,34.50
2018-05-25T16:53:14.678Z,34.90
2018-05-25T16:55:48.989Z,34.80
2018-05-25T16:58:23.591Z,33.90
2018-05-25T17:00:54.505Z,32.80
2018-05-25T17:03:28.713Z,31.70
2018-05-25T17:06:01.111Z,30.40
2018-05-25T17:08:30.534Z,30.30
2018-05-25T17:11:03.083Z,29.20
2018-05-25T17:16:19.985Z,28.60
2018-05-25T17:21:31.853Z,27.70
2018-05-25T17:24:04.310Z,27.50
2018-05-25T17:26:34.285Z,27.30
2018-05-25T17:31:41.034Z,28.20
2018-05-25T17:34:14.873Z,28.70
2018-05-25T17:39:28.603Z,29.60
2018-05-25T17:42:06.695Z,29.60
2018-05-25T17:44:38.027Z,29.20
2018-05-25T17:52:32.280Z,28.00
2018-05-25T17:55:06.009Z,27.70
2018-05-25T18:00:22.581Z,27.10
2018-05-25T18:03:01.284Z,26.90
2018-05-25T18:05:29.896Z,26.60
2018-05-25T18:13:14.131Z,25.70
2018-05-25T18:15:43.417Z,25.50
2018-05-25T18:18:11.413Z,25.40
2018-05-25T18:20:40.257Z,25.30
2018-05-25T18:23:08.373Z,25.20
2018-05-25T18:25:37.611Z,25.10
2018-05-25T18:28:06.466Z,25.00
2018-05-25T18:30:35.243Z,24.90
2018-05-25T18:33:03.619Z,24.90
2018-05-25T18:35:32.616Z,25.00
2018-05-25T18:38:01.469Z,24.90
2018-05-25T18:40:30.633Z,24.80
2018-05-25T18:43:00.566Z,24.60
2018-05-25T18:45:29.313Z,24.40
2018-05-25T18:47:57.911Z,24.20
2018-05-25T18:50:25.938Z,24.00
2018-05-25T18:52:54.556Z,23.80
2018-05-25T18:55:24.010Z,23.70
2018-05-25T18:57:52.684Z,23.50
2018-05-25T19:00:20.847Z,23.40
2018-05-25T19:02:48.989Z,23.20
2018-05-25T19:05:17.380Z,22.90
2018-05-25T19:07:44.998Z,22.90
2018-05-25T19:10:12.587Z,22.80
2018-05-25T19:12:40.233Z,22.70
2018-05-25T19:15:07.812Z,22.60
2018-05-25T19:17:35.382Z,22.50
2018-05-25T19:20:03.001Z,22.40
2018-05-25T19:22:30.625Z,22.20
2018-05-25T19:24:58.234Z,22.10
2018-05-25T19:27:25.852Z,22.00
2018-05-25T19:29:54.241Z,21.80
2018-05-25T19:32:21.896Z,21.80
2018-05-25T19:34:49.476Z,21.70
2018-05-25T19:37:17.113Z,21.60
2018-05-25T19:39:44.724Z,21.50
2018-05-25T19:42:12.409Z,21.50
2018-05-25T19:44:40.173Z,21.40
2018-05-25T19:47:07.752Z,21.30
2018-05-25T19:49:35.368Z,21.20
2018-05-25T19:52:02.992Z,21.10
2018-05-25T19:54:30.593Z,21.00
2018-05-25T19:56:58.175Z,20.90
2018-05-25T19:59:25.793Z,20.90
2018-05-25T20:01:53.393Z,20.80
2018-05-25T20:04:21.037Z,20.70
2018-05-25T20:06:48.610Z,20.70
2018-05-25T20:09:16.228Z,20.70
2018-05-25T20:11:43.801Z,20.60
2018-05-25T20:14:11.451Z,20.50
2018-05-25T20:16:39.032Z,20.40
2018-05-25T20:19:06.646Z,20.40
2018-05-25T20:21:34.264Z,20.30
2018-05-25T20:24:01.892Z,20.20
2018-05-25T20:26:29.473Z,20.20
2018-05-25T20:28:57.096Z,20.20
2018-05-25T20:31:24.686Z,20.10
2018-05-25T20:33:52.306Z,20.00
2018-05-25T20:36:19.937Z,20.00
2018-05-25T20:38:47.549Z,20.00
2018-05-25T20:41:15.133Z,19.90
2018-05-25T20:43:42.752Z,19.80
2018-05-25T20:46:10.330Z,19.70
2018-05-25T20:48:37.969Z,19.70
2018-05-25T20:51:05.550Z,19.70
2018-05-25T20:53:33.134Z,19.70
2018-05-25T20:56:01.521Z,19.50
2018-05-25T20:58:29.099Z,19.50
2018-05-25T21:00:57.493Z,19.30
2018-05-25T21:03:25.076Z,19.30
2018-05-25T21:05:52.653Z,19.20
2018-05-25T21:08:20.741Z,19.20
2018-05-25T21:10:48.359Z,19.10
2018-05-25T21:13:15.977Z,19.00
2018-05-25T21:15:44.387Z,18.90
2018-05-25T21:18:11.965Z,18.90
2018-05-25T21:20:39.586Z,18.80
2018-05-25T21:23:08.041Z,18.70
2018-05-25T21:25:35.917Z,18.70
2018-05-25T21:28:03.524Z,18.70
2018-05-25T21:30:31.617Z,18.60
2018-05-25T21:32:59.201Z,18.50
2018-05-25T21:35:26.813Z,18.50
2018-05-25T21:37:55.256Z,18.40
2018-05-25T21:40:23.159Z,18.40
2018-05-25T21:42:50.834Z,18.30
2018-05-25T21:45:18.605Z,18.30
2018-05-25T21:47:47.341Z,18.20
2018-05-25T21:50:14.990Z,18.10
2018-05-25T21:52:42.623Z,18.10
2018-05-25T21:55:10.236Z,18.00
2018-05-25T21:57:38.065Z,18.00
2018-05-25T22:00:06.306Z,17.90
2018-05-25T22:02:33.926Z,17.90
2018-05-25T22:05:01.530Z,17.80
2018-05-25T22:07:29.160Z,17.80
2018-05-25T22:09:57.088Z,17.70
2018-05-25T22:12:26.697Z,17.60
2018-05-25T22:14:54.531Z,17.60
2018-05-25T22:17:22.216Z,17.60
2018-05-25T22:19:49.863Z,17.50
2018-05-25T22:22:17.562Z,17.60
2018-05-25T22:24:45.197Z,17.50
2018-05-25T22:27:12.779Z,17.50
2018-05-25T22:29:40.361Z,17.50
2018-05-25T22:32:08.082Z,17.50
2018-05-25T22:34:35.657Z,17.50
2018-05-25T22:37:06.652Z,17.50
2018-05-25T22:39:34.238Z,17.40
2018-05-25T22:42:01.369Z,17.40
2018-05-25T22:44:40.935Z,17.30
2018-05-25T22:47:20.297Z,17.20
2018-05-25T22:49:59.581Z,17.20
2018-05-25T22:52:33.110Z,17.10
2018-05-25T22:55:00.803Z,17.00
2018-05-25T22:57:28.415Z,17.00
2018-05-25T22:59:55.988Z,17.00
2018-05-25T23:02:23.583Z,16.90
2018-05-25T23:04:51.200Z,16.80
2018-05-25T23:07:18.802Z,16.80
2018-05-25T23:09:46.424Z,16.70
2018-05-25T23:12:14.006Z,16.60
2018-05-25T23:14:41.581Z,16.60
2018-05-25T23:17:09.221Z,16.50
2018-05-25T23:19:36.797Z,16.40
2018-05-25T23:22:04.373Z,16.30
2018-05-25T23:24:31.996Z,16.30
2018-05-25T23:26:59.575Z,16.30
2018-05-25T23:29:27.200Z,16.20
2018-05-25T23:31:54.791Z,16.10
2018-05-25T23:34:22.417Z,16.10
2018-05-25T23:36:50.002Z,16.00
2018-05-25T23:39:17.625Z,16.00
2018-05-25T23:41:45.258Z,16.00
2018-05-25T23:44:12.868Z,15.90
2018-05-25T23:46:40.450Z,15.90
2018-05-25T23:49:08.069Z,15.80
2018-05-25T23:51:35.655Z,15.70
2018-05-25T23:54:03.272Z,15.70
2018-05-25T23:56:30.897Z,15.60
2018-05-25T23:58:58.477Z,15.60
